createdAt,value
2022-12-03T00:00:43.523Z,30.15
2022-12-03T00:03:12.170Z,29.40
2022-12-03T00:05:48.308Z,35.75
2022-12-03T00:08:17.444Z,26.13
2022-12-03T00:10:46.142Z,26.80
2022-12-03T00:13:14.503Z,32.78
2022-12-03T00:15:42.934Z,34.85
2022-12-03T00:18:11.355Z,28.15
2022-12-03T00:20:39.772Z,25.73
2022-12-03T00:23:09.169Z,31.52
2022-12-03T00:25:37.577Z,25.50
2022-12-03T00:28:05.957Z,25.52
2022-12-03T00:30:34.357Z,28.27
2022-12-03T00:33:02.880Z,35.50
2022-12-03T00:35:31.285Z,37.60
2022-12-03T00:37:59.687Z,34.67
2022-12-03T00:40:28.311Z,27.83
2022-12-03T00:42:56.841Z,25.35
2022-12-03T00:45:25.162Z,27.30
2022-12-03T00:47:53.749Z,31.88
2022-12-03T00:50:22.147Z,27.77
2022-12-03T00:52:51.658Z,26.48
2022-12-03T00:55:20.056Z,29.58
2022-12-03T00:57:48.569Z,25.58
2022-12-03T01:00:17.691Z,28.42
2022-12-03T01:02:46.069Z,25.50
2022-12-03T01:05:14.489Z,40.38
2022-12-03T01:07:43.040Z,45.33
2022-12-03T01:10:12.623Z,25.95
2022-12-03T01:12:41.166Z,30.40
2022-12-03T01:15:10.616Z,32.08
2022-12-03T01:17:39.175Z,26.73
2022-12-03T01:20:09.382Z,31.88
2022-12-03T01:22:37.854Z,33.53
2022-12-03T01:25:06.784Z,38.03
2022-12-03T01:27:35.296Z,33.17
2022-12-03T01:30:05.096Z,30.20
2022-12-03T01:32:33.524Z,29.88
2022-12-03T01:35:02.039Z,29.60
2022-12-03T01:37:30.600Z,34.13
2022-12-03T01:39:59.054Z,48.58
2022-12-03T01:42:31.534Z,33.15
2022-12-03T01:45:01.386Z,35.60
2022-12-03T01:47:35.212Z,36.53
2022-12-03T01:50:08.437Z,37.90
2022-12-03T01:52:39.182Z,32.70
2022-12-03T01:55:13.672Z,33.60
2022-12-03T01:57:47.407Z,33.70
2022-12-03T02:00:18.536Z,36.97
2022-12-03T02:02:49.884Z,37.50
2022-12-03T02:05:22.335Z,41.03
2022-12-03T02:07:50.859Z,32.10
2022-12-03T02:10:25.381Z,32.70
2022-12-03T02:13:01.487Z,34.08
2022-12-03T02:15:30.052Z,33.95
2022-12-03T02:17:59.695Z,41.63
2022-12-03T02:20:28.207Z,28.25
2022-12-03T02:23:10.697Z,45.60
2022-12-03T02:25:39.500Z,38.40
2022-12-03T02:28:09.655Z,34.58
2022-12-03T02:30:38.247Z,45.90
2022-12-03T02:33:06.817Z,34.05
2022-12-03T02:35:37.340Z,34.22
2022-12-03T02:38:08.497Z,35.42
2022-12-03T02:40:37.370Z,31.42
2022-12-03T02:43:06.096Z,35.22
2022-12-03T02:45:39.455Z,32.80
2022-12-03T02:48:25.515Z,38.42
2022-12-03T02:50:57.325Z,37.80
2022-12-03T02:53:36.277Z,41.78
2022-12-03T02:56:06.144Z,39.75
2022-12-03T02:58:35.196Z,36.33
2022-12-03T03:01:05.084Z,43.05
2022-12-03T03:03:34.539Z,34.90
2022-12-03T03:06:06.123Z,41.30
2022-12-03T03:08:35.434Z,41.53
2022-12-03T03:11:04.338Z,39.75
2022-12-03T03:13:33.924Z,30.75
2022-12-03T03:16:04.452Z,29.63
2022-12-03T03:18:34.305Z,40.50
2022-12-03T03:21:04.086Z,40.55
2022-12-03T03:23:32.571Z,32.55
2022-12-03T03:26:06.057Z,36.15
2022-12-03T03:28:37.855Z,34.47
2022-12-03T03:31:08.340Z,42.03
2022-12-03T03:33:39.229Z,34.33
2022-12-03T03:36:08.599Z,47.97
2022-12-03T03:38:38.473Z,34.40
2022-12-03T03:41:09.210Z,38.40
2022-12-03T03:43:39.303Z,37.05
2022-12-03T03:46:08.259Z,36.65
2022-12-03T03:48:37.017Z,37.20
2022-12-03T03:51:09.324Z,34.17
2022-12-03T03:53:44.848Z,40.55
2022-12-03T03:56:15.591Z,52.60
2022-12-03T03:58:44.006Z,46.28
2022-12-03T04:01:14.081Z,43.60
2022-12-03T04:03:42.636Z,43.10
2022-12-03T04:06:11.315Z,33.95
2022-12-03T04:08:39.717Z,35.88
2022-12-03T04:11:26.868Z,40.95
2022-12-03T04:13:55.333Z,36.25
2022-12-03T04:16:23.819Z,51.22
2022-12-03T04:18:52.321Z,33.45
2022-12-03T04:21:41.878Z,46.30
2022-12-03T04:24:11.260Z,44.55
2022-12-03T04:26:58.291Z,42.42
2022-12-03T04:29:26.796Z,46.88
2022-12-03T04:32:13.860Z,37.22
2022-12-03T04:35:00.605Z,42.75
2022-12-03T04:37:29.060Z,41.58
2022-12-03T04:39:57.498Z,43.72
2022-12-03T04:42:26.017Z,34.20
2022-12-03T04:44:54.593Z,38.70
2022-12-03T04:47:23.246Z,35.60
2022-12-03T04:49:51.884Z,37.50
2022-12-03T04:52:20.877Z,45.10
2022-12-03T04:54:49.312Z,41.17
2022-12-03T04:57:17.737Z,34.28
2022-12-03T04:59:46.258Z,44.50
2022-12-03T05:02:14.737Z,37.40
2022-12-03T05:04:44.139Z,42.20
2022-12-03T05:07:12.494Z,38.22
2022-12-03T05:09:40.910Z,37.45
2022-12-03T05:12:09.358Z,40.63
2022-12-03T05:14:37.778Z,37.70
2022-12-03T05:17:06.345Z,51.70
2022-12-03T05:19:53.448Z,40.30
2022-12-03T05:22:21.838Z,39.42
2022-12-03T05:24:50.283Z,45.35
2022-12-03T05:27:23.405Z,41.90
2022-12-03T05:29:53.195Z,34.13
2022-12-03T05:32:21.782Z,41.65
2022-12-03T05:34:50.164Z,45.15
2022-12-03T05:37:18.545Z,38.40
2022-12-03T05:39:46.874Z,43.67
2022-12-03T05:42:34.049Z,50.45
2022-12-03T05:45:03.791Z,34.58
2022-12-03T05:47:33.192Z,41.20
2022-12-03T05:50:01.879Z,59.35
2022-12-03T05:52:30.295Z,53.15
2022-12-03T05:54:58.707Z,45.70
2022-12-03T05:57:27.116Z,44.63
2022-12-03T05:59:55.537Z,52.53
2022-12-03T06:02:24.070Z,44.72
2022-12-03T06:04:52.975Z,57.40
2022-12-03T06:07:21.520Z,45.90
2022-12-03T06:09:50.060Z,53.33
2022-12-03T06:12:18.410Z,49.75
2022-12-03T06:14:46.780Z,52.05
2022-12-03T06:17:15.253Z,42.47
2022-12-03T06:19:43.656Z,46.05
2022-12-03T06:22:12.368Z,44.35
2022-12-03T06:24:40.782Z,56.92
2022-12-03T06:27:09.407Z,40.10
2022-12-03T06:29:38.309Z,46.10
2022-12-03T06:32:07.993Z,35.05
2022-12-03T06:34:36.571Z,39.85
2022-12-03T06:37:04.969Z,41.25
2022-12-03T06:39:33.462Z,44.63
2022-12-03T06:42:02.021Z,45.58
2022-12-03T06:44:30.350Z,48.40
2022-12-03T06:46:58.879Z,53.17
2022-12-03T06:49:27.315Z,43.03
2022-12-03T06:51:56.071Z,45.20
2022-12-03T06:54:24.575Z,43.30
2022-12-03T06:56:53.104Z,46.25
2022-12-03T06:59:21.480Z,48.50
2022-12-03T07:01:49.879Z,40.33
2022-12-03T07:04:18.364Z,45.90
2022-12-03T07:06:46.774Z,46.35
2022-12-03T07:09:16.980Z,49.67
2022-12-03T07:11:46.466Z,49.55
2022-12-03T07:14:14.967Z,45.97
2022-12-03T07:16:43.772Z,52.28
2022-12-03T07:19:13.796Z,55.85
2022-12-03T07:21:42.212Z,50.50
2022-12-03T07:24:10.743Z,41.67
2022-12-03T07:26:39.178Z,42.22
2022-12-03T07:29:07.550Z,45.53
2022-12-03T07:31:36.443Z,46.03
2022-12-03T07:34:04.854Z,38.13
2022-12-03T07:36:33.266Z,50.83
2022-12-03T07:39:01.832Z,45.38
2022-12-03T07:41:31.009Z,52.10
2022-12-03T07:43:59.439Z,36.28
2022-12-03T07:46:28.249Z,50.53
2022-12-03T07:48:56.623Z,50.35
2022-12-03T07:51:30.468Z,41.75
2022-12-03T07:54:00.445Z,50.10
2022-12-03T07:56:28.996Z,57.13
2022-12-03T07:58:58.185Z,40.97
2022-12-03T08:01:26.774Z,44.95
2022-12-03T08:03:55.360Z,47.35
2022-12-03T08:06:23.723Z,50.33
2022-12-03T08:08:52.194Z,45.75
2022-12-03T08:11:20.719Z,48.50
2022-12-03T08:13:49.252Z,46.17
2022-12-03T08:16:20.772Z,45.85
2022-12-03T08:18:50.974Z,39.30
2022-12-03T08:21:21.179Z,37.55
2022-12-03T08:23:49.571Z,37.47
2022-12-03T08:26:25.558Z,43.53
2022-12-03T08:28:54.672Z,45.78
2022-12-03T08:31:32.507Z,43.03
2022-12-03T08:34:26.341Z,47.05
2022-12-03T08:37:13.885Z,44.17
2022-12-03T08:39:50.709Z,42.95
2022-12-03T08:42:41.822Z,45.92
2022-12-03T08:45:35.254Z,37.03
2022-12-03T08:48:18.650Z,45.35
2022-12-03T08:50:47.095Z,35.10
2022-12-03T08:53:30.448Z,36.50
2022-12-03T08:56:01.427Z,41.55
2022-12-03T08:58:46.246Z,45.20
2022-12-03T09:01:14.900Z,40.70
2022-12-03T09:03:52.151Z,42.92
2022-12-03T09:06:21.863Z,42.88
2022-12-03T09:08:50.235Z,35.03
2022-12-03T09:11:18.814Z,41.72
2022-12-03T09:13:47.226Z,37.50
2022-12-03T09:16:15.743Z,32.03
2022-12-03T09:18:45.291Z,36.28
2022-12-03T09:21:13.682Z,36.35
2022-12-03T09:23:42.157Z,39.90
2022-12-03T09:26:10.622Z,39.85
2022-12-03T09:28:40.119Z,36.28
2022-12-03T09:31:08.604Z,31.38
2022-12-03T09:33:37.118Z,35.38
2022-12-03T09:36:06.721Z,29.60
2022-12-03T09:38:36.238Z,37.70
2022-12-03T09:41:04.972Z,36.53
2022-12-03T09:44:02.661Z,37.08
2022-12-03T09:46:22.892Z,35.65
2022-12-03T09:48:51.278Z,35.58
2022-12-03T09:51:21.025Z,43.47
2022-12-03T09:53:49.433Z,34.22
2022-12-03T09:56:22.170Z,42.40
2022-12-03T09:58:50.693Z,37.28
2022-12-03T10:01:19.200Z,39.42
2022-12-03T10:03:50.052Z,40.63
2022-12-03T10:06:21.579Z,41.95
2022-12-03T10:08:53.464Z,32.55
2022-12-03T10:11:24.984Z,33.50
2022-12-03T10:13:56.239Z,29.85
2022-12-03T10:16:25.808Z,38.80
2022-12-03T10:18:57.018Z,34.95
2022-12-03T10:21:34.600Z,42.65
2022-12-03T10:24:20.998Z,40.13
2022-12-03T10:26:52.982Z,39.22
2022-12-03T10:29:34.560Z,44.83
2022-12-03T10:32:09.973Z,33.58
2022-12-03T10:34:41.028Z,38.95
2022-12-03T10:37:17.189Z,38.08
2022-12-03T10:40:00.743Z,32.67
2022-12-03T10:42:32.410Z,45.63
2022-12-03T10:45:24.850Z,31.13
2022-12-03T10:48:05.934Z,35.55
2022-12-03T10:50:35.796Z,33.33
2022-12-03T10:53:04.867Z,28.48
2022-12-03T10:55:41.143Z,32.05
2022-12-03T10:58:31.384Z,33.90
2022-12-03T11:01:03.411Z,38.45
2022-12-03T11:03:36.280Z,37.47
2022-12-03T11:06:05.149Z,46.47
2022-12-03T11:08:36.320Z,34.25
2022-12-03T11:11:17.031Z,38.25
2022-12-03T11:13:53.075Z,35.05
2022-12-03T11:16:39.920Z,36.58
2022-12-03T11:19:36.488Z,38.13
2022-12-03T11:22:04.880Z,35.10
2022-12-03T11:24:35.899Z,41.25
2022-12-03T11:27:04.283Z,33.25
2022-12-03T11:29:46.629Z,34.85
2022-12-03T11:35:02.561Z,36.42
2022-12-03T11:37:31.240Z,41.65
2022-12-03T11:40:39.090Z,56.45
2022-12-03T11:43:09.923Z,39.47
2022-12-03T11:45:38.776Z,40.60
2022-12-03T11:48:13.784Z,31.40
2022-12-03T11:50:45.188Z,40.75
2022-12-03T11:53:16.113Z,39.03
2022-12-03T11:55:51.914Z,48.83
2022-12-03T11:58:30.176Z,40.63
2022-12-03T12:01:00.399Z,36.10
2022-12-03T12:03:42.043Z,45.70
2022-12-03T12:06:17.068Z,33.50
2022-12-03T12:08:51.715Z,35.58
2022-12-03T12:11:30.382Z,48.40
2022-12-03T12:13:59.914Z,43.35
2022-12-03T12:16:53.686Z,45.47
2022-12-03T12:19:40.077Z,45.50
2022-12-03T12:22:17.626Z,38.90
2022-12-03T12:24:51.452Z,39.25
2022-12-03T12:27:39.273Z,42.28
2022-12-03T12:30:17.482Z,40.45
2022-12-03T12:33:04.143Z,49.38
2022-12-03T12:35:33.065Z,43.17
2022-12-03T12:38:20.065Z,41.00
2022-12-03T12:40:53.173Z,43.38
2022-12-03T12:43:27.695Z,36.72
2022-12-03T12:46:46.541Z,42.72
2022-12-03T12:49:26.370Z,34.55
2022-12-03T12:51:58.785Z,42.50
2022-12-03T12:54:35.255Z,40.58
2022-12-03T12:57:19.815Z,37.35
2022-12-03T12:59:52.486Z,41.13
2022-12-03T13:03:04.692Z,49.17
2022-12-03T13:05:45.391Z,39.50
2022-12-03T13:08:39.657Z,42.28
2022-12-03T13:11:51.862Z,44.40
2022-12-03T13:14:26.174Z,43.83
2022-12-03T13:17:00.008Z,43.20
2022-12-03T13:19:39.640Z,49.03
2022-12-03T13:22:23.251Z,54.42
2022-12-03T13:24:59.631Z,59.13
2022-12-03T13:27:30.178Z,47.88
2022-12-03T13:30:10.257Z,40.70
2022-12-03T13:32:44.362Z,46.33
2022-12-03T13:35:28.245Z,45.63
2022-12-03T13:37:59.296Z,44.28
2022-12-03T13:40:36.495Z,62.30
2022-12-03T13:43:19.114Z,45.20
2022-12-03T13:45:55.257Z,60.08
2022-12-03T13:48:42.852Z,53.60
2022-12-03T13:51:33.401Z,51.67
2022-12-03T13:54:14.383Z,64.55
2022-12-03T13:56:57.405Z,53.63
2022-12-03T13:59:30.552Z,52.07
2022-12-03T14:02:05.991Z,53.95
2022-12-03T14:04:37.779Z,49.65
2022-12-03T14:07:14.247Z,56.72
2022-12-03T14:09:51.523Z,47.78
2022-12-03T14:12:34.030Z,53.58
2022-12-03T14:15:05.466Z,47.17
2022-12-03T14:17:34.529Z,61.92
2022-12-03T14:20:06.773Z,54.85
2022-12-03T14:25:15.999Z,60.28
2022-12-03T14:28:08.774Z,46.22
2022-12-03T14:30:39.808Z,55.28
2022-12-03T14:33:08.792Z,49.10
2022-12-03T14:35:37.913Z,63.72
2022-12-03T14:38:06.320Z,43.78
2022-12-03T14:40:34.777Z,58.58
2022-12-03T14:43:03.459Z,52.85
2022-12-03T14:45:32.906Z,46.15
2022-12-03T14:48:01.420Z,60.97
2022-12-03T14:50:30.235Z,49.42
2022-12-03T14:52:58.688Z,52.95
2022-12-03T14:55:27.233Z,45.17
2022-12-03T14:57:55.639Z,57.30
2022-12-03T15:00:24.261Z,44.33
2022-12-03T15:02:52.733Z,49.60
2022-12-03T15:05:27.989Z,45.22
2022-12-03T15:07:58.166Z,50.58
2022-12-03T15:10:26.586Z,49.85
2022-12-03T15:12:54.946Z,57.35
2022-12-03T15:15:24.408Z,50.03
2022-12-03T15:17:52.905Z,57.65
2022-12-03T15:20:21.366Z,51.03
2022-12-03T15:22:50.827Z,50.05
2022-12-03T15:25:25.409Z,46.05
2022-12-03T15:27:53.899Z,62.50
2022-12-03T15:30:22.381Z,47.72
2022-12-03T15:32:50.925Z,49.78
2022-12-03T15:35:20.320Z,46.33
2022-12-03T15:37:48.840Z,52.42
2022-12-03T15:40:17.386Z,66.32
2022-12-03T15:42:45.825Z,59.20
2022-12-03T15:45:15.523Z,56.53
2022-12-03T15:47:44.480Z,52.28
2022-12-03T15:50:14.175Z,49.03
2022-12-03T15:52:42.701Z,63.40
2022-12-03T15:55:11.562Z,52.72
2022-12-03T15:57:40.034Z,50.17
2022-12-03T16:00:10.834Z,57.58
2022-12-03T16:02:40.755Z,44.75
2022-12-03T16:05:11.808Z,63.97
2022-12-03T16:07:40.911Z,47.53
2022-12-03T16:10:10.823Z,57.38
2022-12-03T16:12:39.482Z,45.80
2022-12-03T16:15:08.327Z,60.00
2022-12-03T16:17:36.786Z,51.65
2022-12-03T16:20:06.713Z,55.20
2022-12-03T16:22:35.150Z,38.13
2022-12-03T16:25:05.114Z,47.10
2022-12-03T16:27:33.749Z,62.50
2022-12-03T16:30:02.353Z,55.30
2022-12-03T16:32:30.840Z,67.50
2022-12-03T16:34:59.291Z,46.28
2022-12-03T16:37:27.731Z,64.57
2022-12-03T16:39:56.504Z,47.72
2022-12-03T16:42:27.238Z,55.42
2022-12-03T16:45:22.810Z,56.28
2022-12-03T16:47:51.149Z,65.57
2022-12-03T16:50:25.881Z,66.18
2022-12-03T16:52:58.075Z,52.30
2022-12-03T16:55:26.448Z,61.90
2022-12-03T16:57:54.875Z,55.97
2022-12-03T17:00:23.435Z,58.60
2022-12-03T17:02:51.961Z,55.95
2022-12-03T17:05:20.455Z,59.20
2022-12-03T17:07:49.017Z,49.90
2022-12-03T17:10:17.546Z,56.92
2022-12-03T17:13:08.923Z,56.00
2022-12-03T17:15:34.824Z,51.40
2022-12-03T17:18:06.437Z,65.45
2022-12-03T17:20:35.831Z,69.90
2022-12-03T17:23:04.255Z,60.72
2022-12-03T17:25:34.154Z,69.35
2022-12-03T17:28:02.666Z,62.58
2022-12-03T17:30:31.051Z,46.05
2022-12-03T17:32:59.439Z,60.08
2022-12-03T17:35:28.554Z,58.33
2022-12-03T17:37:57.007Z,70.07
2022-12-03T17:40:25.376Z,67.30
2022-12-03T17:42:53.830Z,59.40
2022-12-03T17:45:22.234Z,65.03
2022-12-03T17:47:50.753Z,53.92
2022-12-03T17:50:19.562Z,47.80
2022-12-03T17:52:48.002Z,53.42
2022-12-03T17:55:26.478Z,64.72
2022-12-03T17:58:02.616Z,68.20
2022-12-03T18:00:31.494Z,67.50
2022-12-03T18:02:59.923Z,71.50
2022-12-03T18:05:28.368Z,54.65
2022-12-03T18:07:56.878Z,72.72
2022-12-03T18:10:25.514Z,76.38
2022-12-03T18:12:58.333Z,56.60
2022-12-03T18:15:31.092Z,71.63
2022-12-03T18:17:59.595Z,75.60
2022-12-03T18:20:28.241Z,65.95
2022-12-03T18:22:58.899Z,67.97
2022-12-03T18:25:28.272Z,68.78
2022-12-03T18:27:57.312Z,65.18
2022-12-03T18:30:25.710Z,67.43
2022-12-03T18:32:54.424Z,74.05
2022-12-03T18:35:22.987Z,61.42
2022-12-03T18:37:51.725Z,69.05
2022-12-03T18:40:23.357Z,67.20
2022-12-03T18:42:51.768Z,69.32
2022-12-03T18:45:20.544Z,63.22
2022-12-03T18:47:49.223Z,66.50
2022-12-03T18:50:17.692Z,77.35
2022-12-03T18:52:46.091Z,66.22
2022-12-03T18:55:19.164Z,75.18
2022-12-03T18:57:47.538Z,76.75
2022-12-03T19:00:17.553Z,58.70
2022-12-03T19:03:03.461Z,66.10
2022-12-03T19:05:34.409Z,67.90
2022-12-03T19:08:03.493Z,66.40
2022-12-03T19:10:32.935Z,55.88
2022-12-03T19:13:01.444Z,71.72
2022-12-03T19:15:30.834Z,71.18
2022-12-03T19:17:59.270Z,75.30
2022-12-03T19:20:28.779Z,65.15
2022-12-03T19:22:57.286Z,77.90
2022-12-03T19:25:25.813Z,60.85
2022-12-03T19:27:55.094Z,52.17
2022-12-03T19:30:23.692Z,56.78
2022-12-03T19:32:52.179Z,69.75
2022-12-03T19:35:24.978Z,108.40
2022-12-03T19:37:53.536Z,72.60
2022-12-03T19:40:22.020Z,57.30
2022-12-03T19:42:50.432Z,68.63
2022-12-03T19:45:18.866Z,86.28
2022-12-03T19:47:47.280Z,70.40
2022-12-03T19:50:22.623Z,69.55
2022-12-03T19:52:51.937Z,84.78
2022-12-03T19:55:20.579Z,75.60
2022-12-03T19:57:49.220Z,60.33
2022-12-03T20:00:17.995Z,53.30
2022-12-03T20:02:49.233Z,64.47
2022-12-03T20:05:17.820Z,64.17
2022-12-03T20:07:46.347Z,62.85
2022-12-03T20:10:14.850Z,80.82
2022-12-03T20:12:43.286Z,70.13
2022-12-03T20:15:13.401Z,80.68
2022-12-03T20:17:41.830Z,76.10
2022-12-03T20:20:10.722Z,73.75
2022-12-03T20:22:39.201Z,83.35
2022-12-03T20:25:08.009Z,94.85
2022-12-03T20:27:36.738Z,74.70
2022-12-03T20:30:05.880Z,76.43
2022-12-03T20:32:37.298Z,69.22
2022-12-03T20:35:09.717Z,72.38
2022-12-03T20:37:38.115Z,66.80
2022-12-03T20:40:07.205Z,76.28
2022-12-03T20:42:35.601Z,69.45
2022-12-03T20:45:04.388Z,75.80
2022-12-03T20:47:32.754Z,98.28
2022-12-03T20:50:01.202Z,83.20
2022-12-03T20:52:29.663Z,86.55
2022-12-03T20:54:58.107Z,85.00
2022-12-03T20:57:26.546Z,91.25
2022-12-03T20:59:56.008Z,74.15
2022-12-03T21:02:24.652Z,83.65
2022-12-03T21:04:53.601Z,68.15
2022-12-03T21:07:22.054Z,65.57
2022-12-03T21:09:50.776Z,66.65
2022-12-03T21:12:19.122Z,72.35
2022-12-03T21:14:47.570Z,81.85
2022-12-03T21:17:16.056Z,79.40
2022-12-03T21:19:46.817Z,67.93
2022-12-03T21:22:15.315Z,80.60
2022-12-03T21:24:44.816Z,88.43
2022-12-03T21:27:17.104Z,66.47
2022-12-03T21:29:49.888Z,72.20
2022-12-03T21:32:18.378Z,78.93
2022-12-03T21:34:46.790Z,85.53
2022-12-03T21:37:15.240Z,103.82
2022-12-03T21:39:43.659Z,100.30
2022-12-03T21:42:36.241Z,87.95
2022-12-03T21:45:00.441Z,82.30
2022-12-03T21:47:33.519Z,69.32
2022-12-03T21:50:07.346Z,71.30
2022-12-03T21:52:35.733Z,81.15
2022-12-03T21:55:04.402Z,84.50
2022-12-03T21:57:35.722Z,70.45
2022-12-03T22:00:08.638Z,66.63
2022-12-03T22:02:39.065Z,81.18
2022-12-03T22:05:09.090Z,72.55
2022-12-03T22:07:38.760Z,73.20
2022-12-03T22:10:09.822Z,90.00
2022-12-03T22:12:40.629Z,64.18
2022-12-03T22:15:16.593Z,69.68
2022-12-03T22:17:47.705Z,80.55
2022-12-03T22:20:16.326Z,79.32
2022-12-03T22:22:44.736Z,72.68
2022-12-03T22:25:13.158Z,78.63
2022-12-03T22:27:41.555Z,73.18
2022-12-03T22:30:10.148Z,70.35
2022-12-03T22:32:38.643Z,89.40
2022-12-03T22:35:07.422Z,77.40
2022-12-03T22:37:35.972Z,73.53
2022-12-03T22:40:05.068Z,91.18
2022-12-03T22:42:33.529Z,85.32
2022-12-03T22:45:01.946Z,75.13
2022-12-03T22:47:31.342Z,79.50
2022-12-03T22:49:59.709Z,77.93
2022-12-03T22:52:28.119Z,72.28
2022-12-03T22:54:56.536Z,75.18
2022-12-03T22:57:24.917Z,77.25
2022-12-03T22:59:53.692Z,75.90
2022-12-03T23:02:22.332Z,80.93
2022-12-03T23:04:50.788Z,100.07
2022-12-03T23:07:19.188Z,77.07
2022-12-03T23:09:48.714Z,81.97
2022-12-03T23:12:17.136Z,74.10
2022-12-03T23:14:45.547Z,74.43
2022-12-03T23:17:13.910Z,74.90
2022-12-03T23:19:42.413Z,88.80
2022-12-03T23:22:10.759Z,81.93
2022-12-03T23:24:40.263Z,61.17
2022-12-03T23:27:08.670Z,100.20
2022-12-03T23:29:37.019Z,66.72
2022-12-03T23:32:05.423Z,76.70
2022-12-03T23:34:33.987Z,75.82
2022-12-03T23:37:02.503Z,76.65
2022-12-03T23:39:30.890Z,81.75
2022-12-03T23:41:59.257Z,73.80
2022-12-03T23:44:28.032Z,67.40
2022-12-03T23:46:56.574Z,65.15
2022-12-03T23:49:25.123Z,75.10
2022-12-03T23:51:53.614Z,95.88
2022-12-03T23:54:22.174Z,74.07
2022-12-03T23:56:50.538Z,68.45
2022-12-03T23:59:18.909Z,75.70
